sensor_id;sensor_type;location;lat;lon;timestamp;temperature;humidity
11426;DHT22;5769;47.998;7.788;2024-03-02T00:01:45;18.30;72.10
11426;DHT22;5769;47.998;7.788;2024-03-02T00:04:11;18.30;72.10
11426;DHT22;5769;47.998;7.788;2024-03-02T00:06:38;18.30;72.10
11426;DHT22;5769;47.998;7.788;2024-03-02T00:09:09;18.30;72.10
11426;DHT22;5769;47.998;7.788;2024-03-02T00:11:37;18.30;72.00
11426;DHT22;5769;47.998;7.788;2024-03-02T00:14:05;18.30;72.10
11426;DHT22;5769;47.998;7.788;2024-03-02T00:16:34;18.30;72.80
11426;DHT22;5769;47.998;7.788;2024-03-02T00:19:03;18.30;72.10
11426;DHT22;5769;47.998;7.788;2024-03-02T00:21:32;18.30;72.20
11426;DHT22;5769;47.998;7.788;2024-03-02T00:23:58;18.30;72.30
11426;DHT22;5769;47.998;7.788;2024-03-02T00:26:29;18.30;72.50
11426;DHT22;5769;47.998;7.788;2024-03-02T00:28:56;18.30;72.70
11426;DHT22;5769;47.998;7.788;2024-03-02T00:31:23;18.30;72.40
11426;DHT22;5769;47.998;7.788;2024-03-02T00:33:52;18.30;72.40
11426;DHT22;5769;47.998;7.788;2024-03-02T00:36:26;18.30;72.50
11426;DHT22;5769;47.998;7.788;2024-03-02T00:38:54;18.30;72.40
11426;DHT22;5769;47.998;7.788;2024-03-02T00:41:23;18.30;72.10
11426;DHT22;5769;47.998;7.788;2024-03-02T00:43:57;18.30;72.00
11426;DHT22;5769;47.998;7.788;2024-03-02T00:46:25;18.30;72.10
11426;DHT22;5769;47.998;7.788;2024-03-02T00:48:58;18.30;72.10
11426;DHT22;5769;47.998;7.788;2024-03-02T00:51:27;18.30;72.40
11426;DHT22;5769;47.998;7.788;2024-03-02T00:53:59;18.30;72.30
11426;DHT22;5769;47.998;7.788;2024-03-02T00:56:30;18.30;72.40
11426;DHT22;5769;47.998;7.788;2024-03-02T00:58:57;18.30;72.30
11426;DHT22;5769;47.998;7.788;2024-03-02T01:01:24;18.30;72.20
11426;DHT22;5769;47.998;7.788;2024-03-02T01:03:50;18.30;72.10
11426;DHT22;5769;47.998;7.788;2024-03-02T01:06:19;18.30;72.70
11426;DHT22;5769;47.998;7.788;2024-03-02T01:08:45;18.30;71.90
11426;DHT22;5769;47.998;7.788;2024-03-02T01:11:16;18.30;71.90
11426;DHT22;5769;47.998;7.788;2024-03-02T01:13:43;18.30;72.10
11426;DHT22;5769;47.998;7.788;2024-03-02T01:16:10;18.30;72.00
11426;DHT22;5769;47.998;7.788;2024-03-02T01:18:36;18.30;71.80
11426;DHT22;5769;47.998;7.788;2024-03-02T01:21:04;18.30;71.70
11426;DHT22;5769;47.998;7.788;2024-03-02T01:23:33;18.30;71.80
11426;DHT22;5769;47.998;7.788;2024-03-02T01:26:00;18.30;71.80
11426;DHT22;5769;47.998;7.788;2024-03-02T01:28:27;18.30;71.80
11426;DHT22;5769;47.998;7.788;2024-03-02T01:30:54;18.30;71.70
11426;DHT22;5769;47.998;7.788;2024-03-02T01:33:21;18.30;71.80
11426;DHT22;5769;47.998;7.788;2024-03-02T01:35:48;18.30;71.70
11426;DHT22;5769;47.998;7.788;2024-03-02T01:38:14;18.30;71.80
11426;DHT22;5769;47.998;7.788;2024-03-02T01:40:43;18.30;71.60
11426;DHT22;5769;47.998;7.788;2024-03-02T01:43:10;18.30;71.50
11426;DHT22;5769;47.998;7.788;2024-03-02T01:45:37;18.30;71.40
11426;DHT22;5769;47.998;7.788;2024-03-02T01:48:04;18.30;71.80
11426;DHT22;5769;47.998;7.788;2024-03-02T01:50:34;18.30;71.70
11426;DHT22;5769;47.998;7.788;2024-03-02T01:53:01;18.30;71.40
11426;DHT22;5769;47.998;7.788;2024-03-02T01:55:28;18.20;71.20
11426;DHT22;5769;47.998;7.788;2024-03-02T01:57:57;18.20;71.20
11426;DHT22;5769;47.998;7.788;2024-03-02T02:00:27;18.30;71.10
11426;DHT22;5769;47.998;7.788;2024-03-02T02:02:54;18.30;71.20
11426;DHT22;5769;47.998;7.788;2024-03-02T02:05:21;18.30;71.00
11426;DHT22;5769;47.998;7.788;2024-03-02T02:07:47;18.20;71.00
11426;DHT22;5769;47.998;7.788;2024-03-02T02:10:14;18.30;71.10
11426;DHT22;5769;47.998;7.788;2024-03-02T02:12:41;18.30;71.00
11426;DHT22;5769;47.998;7.788;2024-03-02T02:15:26;18.20;71.60
11426;DHT22;5769;47.998;7.788;2024-03-02T02:17:53;18.20;71.00
11426;DHT22;5769;47.998;7.788;2024-03-02T02:20:19;18.20;71.10
11426;DHT22;5769;47.998;7.788;2024-03-02T02:22:55;18.20;71.00
11426;DHT22;5769;47.998;7.788;2024-03-02T02:25:22;18.30;71.00
11426;DHT22;5769;47.998;7.788;2024-03-02T02:27:49;18.30;71.20
11426;DHT22;5769;47.998;7.788;2024-03-02T02:30:19;18.20;71.20
11426;DHT22;5769;47.998;7.788;2024-03-02T02:32:46;18.20;70.90
11426;DHT22;5769;47.998;7.788;2024-03-02T02:35:13;18.20;71.00
11426;DHT22;5769;47.998;7.788;2024-03-02T02:37:39;18.20;70.90
11426;DHT22;5769;47.998;7.788;2024-03-02T02:40:09;18.30;71.30
11426;DHT22;5769;47.998;7.788;2024-03-02T02:42:35;18.20;71.00
11426;DHT22;5769;47.998;7.788;2024-03-02T02:45:03;18.30;71.30
11426;DHT22;5769;47.998;7.788;2024-03-02T02:47:29;18.30;71.10
11426;DHT22;5769;47.998;7.788;2024-03-02T02:49:56;18.30;71.20
11426;DHT22;5769;47.998;7.788;2024-03-02T02:52:23;18.20;71.50
11426;DHT22;5769;47.998;7.788;2024-03-02T02:54:49;18.20;71.80
11426;DHT22;5769;47.998;7.788;2024-03-02T02:57:18;18.20;71.80
11426;DHT22;5769;47.998;7.788;2024-03-02T02:59:44;18.20;71.90
11426;DHT22;5769;47.998;7.788;2024-03-02T03:02:11;18.30;72.20
11426;DHT22;5769;47.998;7.788;2024-03-02T03:04:40;18.20;71.80
11426;DHT22;5769;47.998;7.788;2024-03-02T03:07:06;18.30;72.00
11426;DHT22;5769;47.998;7.788;2024-03-02T03:09:33;18.20;72.10
11426;DHT22;5769;47.998;7.788;2024-03-02T03:12:05;18.20;72.20
11426;DHT22;5769;47.998;7.788;2024-03-02T03:14:34;18.20;72.10
11426;DHT22;5769;47.998;7.788;2024-03-02T03:17:01;18.30;72.40
11426;DHT22;5769;47.998;7.788;2024-03-02T03:19:28;18.20;71.90
11426;DHT22;5769;47.998;7.788;2024-03-02T03:21:55;18.20;71.90
11426;DHT22;5769;47.998;7.788;2024-03-02T03:24:22;18.20;72.40
11426;DHT22;5769;47.998;7.788;2024-03-02T03:26:48;18.20;71.80
11426;DHT22;5769;47.998;7.788;2024-03-02T03:29:15;18.20;72.10
11426;DHT22;5769;47.998;7.788;2024-03-02T03:31:43;18.20;72.10
11426;DHT22;5769;47.998;7.788;2024-03-02T03:34:13;18.20;71.80
11426;DHT22;5769;47.998;7.788;2024-03-02T03:36:41;18.20;72.00
11426;DHT22;5769;47.998;7.788;2024-03-02T03:39:08;18.20;72.20
11426;DHT22;5769;47.998;7.788;2024-03-02T03:41:36;18.20;71.90
11426;DHT22;5769;47.998;7.788;2024-03-02T03:44:02;18.20;72.20
11426;DHT22;5769;47.998;7.788;2024-03-02T03:46:30;18.30;72.30
11426;DHT22;5769;47.998;7.788;2024-03-02T03:48:58;18.20;72.10
11426;DHT22;5769;47.998;7.788;2024-03-02T03:51:24;18.20;72.30
11426;DHT22;5769;47.998;7.788;2024-03-02T03:53:51;18.30;72.00
11426;DHT22;5769;47.998;7.788;2024-03-02T03:56:18;18.20;71.80
11426;DHT22;5769;47.998;7.788;2024-03-02T03:58:45;18.30;71.80
11426;DHT22;5769;47.998;7.788;2024-03-02T04:01:11;18.20;72.00
11426;DHT22;5769;47.998;7.788;2024-03-02T04:03:38;18.20;72.20
11426;DHT22;5769;47.998;7.788;2024-03-02T04:06:06;18.20;72.20
11426;DHT22;5769;47.998;7.788;2024-03-02T04:08:33;18.20;72.60
11426;DHT22;5769;47.998;7.788;2024-03-02T04:11:00;18.20;72.70
11426;DHT22;5769;47.998;7.788;2024-03-02T04:13:28;18.20;72.90
11426;DHT22;5769;47.998;7.788;2024-03-02T04:15:55;18.20;73.00
11426;DHT22;5769;47.998;7.788;2024-03-02T04:18:21;18.20;73.20
11426;DHT22;5769;47.998;7.788;2024-03-02T04:20:48;18.20;73.10
11426;DHT22;5769;47.998;7.788;2024-03-02T04:23:16;18.20;72.80
11426;DHT22;5769;47.998;7.788;2024-03-02T04:25:43;18.20;72.90
11426;DHT22;5769;47.998;7.788;2024-03-02T04:28:10;18.20;72.70
11426;DHT22;5769;47.998;7.788;2024-03-02T04:30:38;18.20;73.40
11426;DHT22;5769;47.998;7.788;2024-03-02T04:33:04;18.30;71.90
11426;DHT22;5769;47.998;7.788;2024-03-02T04:35:33;18.20;72.20
11426;DHT22;5769;47.998;7.788;2024-03-02T04:37:59;18.20;71.90
11426;DHT22;5769;47.998;7.788;2024-03-02T04:40:27;18.20;72.20
11426;DHT22;5769;47.998;7.788;2024-03-02T04:42:54;18.20;72.30
11426;DHT22;5769;47.998;7.788;2024-03-02T04:45:21;18.20;72.30
11426;DHT22;5769;47.998;7.788;2024-03-02T04:47:48;18.20;72.10
11426;DHT22;5769;47.998;7.788;2024-03-02T04:50:14;18.20;72.60
11426;DHT22;5769;47.998;7.788;2024-03-02T04:52:41;18.20;72.20
11426;DHT22;5769;47.998;7.788;2024-03-02T04:55:08;18.20;72.30
11426;DHT22;5769;47.998;7.788;2024-03-02T04:58:00;18.20;72.00
11426;DHT22;5769;47.998;7.788;2024-03-02T05:00:29;18.30;72.70
11426;DHT22;5769;47.998;7.788;2024-03-02T05:02:57;18.20;72.40
11426;DHT22;5769;47.998;7.788;2024-03-02T05:05:25;18.20;72.50
11426;DHT22;5769;47.998;7.788;2024-03-02T05:07:55;18.30;72.40
11426;DHT22;5769;47.998;7.788;2024-03-02T05:10:22;18.20;72.90
11426;DHT22;5769;47.998;7.788;2024-03-02T05:12:49;18.30;72.70
11426;DHT22;5769;47.998;7.788;2024-03-02T05:15:23;18.20;73.40
11426;DHT22;5769;47.998;7.788;2024-03-02T05:17:50;18.20;73.50
11426;DHT22;5769;47.998;7.788;2024-03-02T05:20:18;18.20;73.30
11426;DHT22;5769;47.998;7.788;2024-03-02T05:22:47;18.20;73.20
11426;DHT22;5769;47.998;7.788;2024-03-02T05:25:15;18.20;73.10
11426;DHT22;5769;47.998;7.788;2024-03-02T05:27:41;18.20;73.00
11426;DHT22;5769;47.998;7.788;2024-03-02T05:30:09;18.20;73.40
11426;DHT22;5769;47.998;7.788;2024-03-02T05:32:38;18.30;74.10
11426;DHT22;5769;47.998;7.788;2024-03-02T05:35:05;18.20;74.00
11426;DHT22;5769;47.998;7.788;2024-03-02T05:37:33;18.20;74.70
11426;DHT22;5769;47.998;7.788;2024-03-02T05:40:00;18.20;74.50
11426;DHT22;5769;47.998;7.788;2024-03-02T05:42:26;18.30;74.70
11426;DHT22;5769;47.998;7.788;2024-03-02T05:44:53;18.30;74.50
11426;DHT22;5769;47.998;7.788;2024-03-02T05:47:20;18.20;74.30
11426;DHT22;5769;47.998;7.788;2024-03-02T05:49:50;18.20;74.40
11426;DHT22;5769;47.998;7.788;2024-03-02T05:52:17;18.30;74.30
11426;DHT22;5769;47.998;7.788;2024-03-02T05:54:44;18.20;74.50
11426;DHT22;5769;47.998;7.788;2024-03-02T05:57:10;18.30;74.40
11426;DHT22;5769;47.998;7.788;2024-03-02T05:59:57;18.30;75.20
11426;DHT22;5769;47.998;7.788;2024-03-02T06:02:24;18.20;74.60
11426;DHT22;5769;47.998;7.788;2024-03-02T06:04:54;18.20;74.10
11426;DHT22;5769;47.998;7.788;2024-03-02T06:07:21;18.30;74.30
11426;DHT22;5769;47.998;7.788;2024-03-02T06:09:48;18.20;75.30
11426;DHT22;5769;47.998;7.788;2024-03-02T06:12:17;18.20;75.10
11426;DHT22;5769;47.998;7.788;2024-03-02T06:14:44;18.20;74.90
11426;DHT22;5769;47.998;7.788;2024-03-02T06:17:11;18.20;74.80
11426;DHT22;5769;47.998;7.788;2024-03-02T06:19:37;18.20;74.40
11426;DHT22;5769;47.998;7.788;2024-03-02T06:22:06;18.20;74.20
11426;DHT22;5769;47.998;7.788;2024-03-02T06:24:38;18.30;74.20
11426;DHT22;5769;47.998;7.788;2024-03-02T06:27:05;18.20;73.90
11426;DHT22;5769;47.998;7.788;2024-03-02T06:29:33;18.20;73.60
11426;DHT22;5769;47.998;7.788;2024-03-02T06:32:00;18.20;73.80
11426;DHT22;5769;47.998;7.788;2024-03-02T06:34:27;18.20;74.60
11426;DHT22;5769;47.998;7.788;2024-03-02T06:36:54;18.20;74.70
11426;DHT22;5769;47.998;7.788;2024-03-02T06:39:22;18.20;74.60
11426;DHT22;5769;47.998;7.788;2024-03-02T06:41:49;18.20;74.40
11426;DHT22;5769;47.998;7.788;2024-03-02T06:44:16;18.20;75.30
11426;DHT22;5769;47.998;7.788;2024-03-02T06:46:42;18.20;75.90
11426;DHT22;5769;47.998;7.788;2024-03-02T06:49:09;18.20;74.60
11426;DHT22;5769;47.998;7.788;2024-03-02T06:51:36;18.30;74.40
11426;DHT22;5769;47.998;7.788;2024-03-02T06:54:03;18.30;74.70
11426;DHT22;5769;47.998;7.788;2024-03-02T06:56:31;18.20;74.30
11426;DHT22;5769;47.998;7.788;2024-03-02T06:58:59;18.20;75.20
11426;DHT22;5769;47.998;7.788;2024-03-02T07:01:26;18.20;75.20
11426;DHT22;5769;47.998;7.788;2024-03-02T07:03:53;18.20;76.00
11426;DHT22;5769;47.998;7.788;2024-03-02T07:06:20;18.10;77.00
11426;DHT22;5769;47.998;7.788;2024-03-02T07:08:46;18.10;77.70
11426;DHT22;5769;47.998;7.788;2024-03-02T07:11:13;18.20;78.50
11426;DHT22;5769;47.998;7.788;2024-03-02T07:13:41;18.30;74.90
11426;DHT22;5769;47.998;7.788;2024-03-02T07:16:08;18.20;74.50
11426;DHT22;5769;47.998;7.788;2024-03-02T07:18:55;18.30;74.70
11426;DHT22;5769;47.998;7.788;2024-03-02T07:21:22;18.20;74.30
11426;DHT22;5769;47.998;7.788;2024-03-02T07:23:49;18.20;74.60
11426;DHT22;5769;47.998;7.788;2024-03-02T07:26:16;18.20;74.10
11426;DHT22;5769;47.998;7.788;2024-03-02T07:28:46;18.20;74.50
11426;DHT22;5769;47.998;7.788;2024-03-02T07:31:14;18.30;74.30
11426;DHT22;5769;47.998;7.788;2024-03-02T07:33:41;18.20;74.20
11426;DHT22;5769;47.998;7.788;2024-03-02T07:36:08;18.20;73.60
11426;DHT22;5769;47.998;7.788;2024-03-02T07:38:34;18.20;74.30
11426;DHT22;5769;47.998;7.788;2024-03-02T07:41:01;18.30;74.50
11426;DHT22;5769;47.998;7.788;2024-03-02T07:43:30;18.20;74.60
11426;DHT22;5769;47.998;7.788;2024-03-02T07:46:00;18.20;74.10
11426;DHT22;5769;47.998;7.788;2024-03-02T07:48:28;18.30;74.20
11426;DHT22;5769;47.998;7.788;2024-03-02T07:50:56;18.20;74.10
11426;DHT22;5769;47.998;7.788;2024-03-02T07:53:23;18.20;73.80
11426;DHT22;5769;47.998;7.788;2024-03-02T07:55:49;18.30;74.10
11426;DHT22;5769;47.998;7.788;2024-03-02T07:58:16;18.20;73.90
11426;DHT22;5769;47.998;7.788;2024-03-02T08:00:45;18.20;73.70
11426;DHT22;5769;47.998;7.788;2024-03-02T08:03:13;18.20;75.20
11426;DHT22;5769;47.998;7.788;2024-03-02T08:05:40;18.20;75.00
11426;DHT22;5769;47.998;7.788;2024-03-02T08:08:07;18.20;74.10
11426;DHT22;5769;47.998;7.788;2024-03-02T08:10:34;18.20;74.30
11426;DHT22;5769;47.998;7.788;2024-03-02T08:13:01;18.30;73.80
11426;DHT22;5769;47.998;7.788;2024-03-02T08:15:28;18.20;73.60
11426;DHT22;5769;47.998;7.788;2024-03-02T08:17:55;18.20;73.70
11426;DHT22;5769;47.998;7.788;2024-03-02T08:20:23;18.20;73.70
11426;DHT22;5769;47.998;7.788;2024-03-02T08:22:50;18.20;74.00
11426;DHT22;5769;47.998;7.788;2024-03-02T08:25:17;18.20;75.40
11426;DHT22;5769;47.998;7.788;2024-03-02T08:27:44;18.20;74.80
11426;DHT22;5769;47.998;7.788;2024-03-02T08:30:12;18.20;75.50
11426;DHT22;5769;47.998;7.788;2024-03-02T08:32:39;18.20;75.50
11426;DHT22;5769;47.998;7.788;2024-03-02T08:35:06;18.20;76.10
11426;DHT22;5769;47.998;7.788;2024-03-02T08:37:37;18.20;75.70
11426;DHT22;5769;47.998;7.788;2024-03-02T08:40:07;18.20;76.30
11426;DHT22;5769;47.998;7.788;2024-03-02T08:42:34;18.20;76.30
11426;DHT22;5769;47.998;7.788;2024-03-02T08:45:01;18.20;76.10
11426;DHT22;5769;47.998;7.788;2024-03-02T08:47:27;18.20;76.10
11426;DHT22;5769;47.998;7.788;2024-03-02T08:49:54;18.20;76.90
11426;DHT22;5769;47.998;7.788;2024-03-02T08:52:21;18.20;76.40
11426;DHT22;5769;47.998;7.788;2024-03-02T08:54:49;18.20;76.40
11426;DHT22;5769;47.998;7.788;2024-03-02T08:57:16;18.20;76.70
11426;DHT22;5769;47.998;7.788;2024-03-02T08:59:43;18.20;78.00
11426;DHT22;5769;47.998;7.788;2024-03-02T09:02:10;18.10;77.30
11426;DHT22;5769;47.998;7.788;2024-03-02T09:04:37;18.10;78.50
11426;DHT22;5769;47.998;7.788;2024-03-02T09:07:04;18.30;74.20
11426;DHT22;5769;47.998;7.788;2024-03-02T09:09:30;18.20;75.60
11426;DHT22;5769;47.998;7.788;2024-03-02T09:11:59;18.20;75.70
11426;DHT22;5769;47.998;7.788;2024-03-02T09:14:26;18.20;75.60
11426;DHT22;5769;47.998;7.788;2024-03-02T09:16:53;18.20;75.60
11426;DHT22;5769;47.998;7.788;2024-03-02T09:19:20;18.20;75.30
11426;DHT22;5769;47.998;7.788;2024-03-02T09:21:47;18.20;76.00
11426;DHT22;5769;47.998;7.788;2024-03-02T09:24:14;18.20;78.50
11426;DHT22;5769;47.998;7.788;2024-03-02T09:26:40;18.20;77.40
11426;DHT22;5769;47.998;7.788;2024-03-02T09:29:12;18.20;78.00
11426;DHT22;5769;47.998;7.788;2024-03-02T09:31:42;18.20;77.50
11426;DHT22;5769;47.998;7.788;2024-03-02T09:34:09;18.20;77.40
11426;DHT22;5769;47.998;7.788;2024-03-02T09:36:36;18.20;76.60
11426;DHT22;5769;47.998;7.788;2024-03-02T09:39:03;18.20;75.70
11426;DHT22;5769;47.998;7.788;2024-03-02T09:41:30;18.10;75.00
11426;DHT22;5769;47.998;7.788;2024-03-02T09:43:57;18.20;74.40
11426;DHT22;5769;47.998;7.788;2024-03-02T09:46:25;18.20;75.20
11426;DHT22;5769;47.998;7.788;2024-03-02T09:48:55;18.20;75.30
11426;DHT22;5769;47.998;7.788;2024-03-02T09:51:24;18.20;71.90
11426;DHT22;5769;47.998;7.788;2024-03-02T09:53:51;18.20;72.90
11426;DHT22;5769;47.998;7.788;2024-03-02T09:56:18;18.20;73.00
11426;DHT22;5769;47.998;7.788;2024-03-02T09:58:45;18.20;72.60
11426;DHT22;5769;47.998;7.788;2024-03-02T10:01:12;18.20;73.10
11426;DHT22;5769;47.998;7.788;2024-03-02T10:03:40;18.20;75.30
11426;DHT22;5769;47.998;7.788;2024-03-02T10:06:20;18.20;76.20
11426;DHT22;5769;47.998;7.788;2024-03-02T10:08:48;18.20;75.90
11426;DHT22;5769;47.998;7.788;2024-03-02T10:11:26;18.20;76.00
11426;DHT22;5769;47.998;7.788;2024-03-02T10:14:06;18.20;75.90
11426;DHT22;5769;47.998;7.788;2024-03-02T10:16:37;18.30;75.70
11426;DHT22;5769;47.998;7.788;2024-03-02T10:19:18;18.30;76.30
11426;DHT22;5769;47.998;7.788;2024-03-02T10:21:46;18.20;76.20
11426;DHT22;5769;47.998;7.788;2024-03-02T10:24:13;18.20;76.20
11426;DHT22;5769;47.998;7.788;2024-03-02T10:26:40;18.20;76.50
11426;DHT22;5769;47.998;7.788;2024-03-02T10:29:10;18.20;75.60
11426;DHT22;5769;47.998;7.788;2024-03-02T10:31:37;18.20;75.20
11426;DHT22;5769;47.998;7.788;2024-03-02T10:34:05;18.20;75.00
11426;DHT22;5769;47.998;7.788;2024-03-02T10:36:34;18.20;74.60
11426;DHT22;5769;47.998;7.788;2024-03-02T10:39:02;18.20;74.40
11426;DHT22;5769;47.998;7.788;2024-03-02T10:41:32;18.20;74.30
11426;DHT22;5769;47.998;7.788;2024-03-02T10:43:59;18.20;74.40
11426;DHT22;5769;47.998;7.788;2024-03-02T10:46:29;18.20;74.40
11426;DHT22;5769;47.998;7.788;2024-03-02T10:48:56;18.20;75.00
11426;DHT22;5769;47.998;7.788;2024-03-02T10:51:24;18.20;75.30
11426;DHT22;5769;47.998;7.788;2024-03-02T10:53:52;18.20;75.30
11426;DHT22;5769;47.998;7.788;2024-03-02T10:56:22;18.20;75.40
11426;DHT22;5769;47.998;7.788;2024-03-02T10:58:58;18.20;71.90
11426;DHT22;5769;47.998;7.788;2024-03-02T11:01:29;18.30;72.40
11426;DHT22;5769;47.998;7.788;2024-03-02T11:03:58;18.20;73.30
11426;DHT22;5769;47.998;7.788;2024-03-02T11:06:26;18.20;73.80
11426;DHT22;5769;47.998;7.788;2024-03-02T11:08:58;18.20;74.80
11426;DHT22;5769;47.998;7.788;2024-03-02T11:11:30;18.20;78.10
11426;DHT22;5769;47.998;7.788;2024-03-02T11:14:01;18.20;78.00
11426;DHT22;5769;47.998;7.788;2024-03-02T11:16:35;18.20;78.00
11426;DHT22;5769;47.998;7.788;2024-03-02T11:19:04;18.20;78.50
11426;DHT22;5769;47.998;7.788;2024-03-02T11:21:32;18.20;77.20
11426;DHT22;5769;47.998;7.788;2024-03-02T11:24:00;18.20;77.70
11426;DHT22;5769;47.998;7.788;2024-03-02T11:26:28;18.20;77.90
11426;DHT22;5769;47.998;7.788;2024-03-02T11:28:56;18.20;74.50
11426;DHT22;5769;47.998;7.788;2024-03-02T11:31:57;18.20;77.30
11426;DHT22;5769;47.998;7.788;2024-03-02T11:34:29;18.20;70.20
11426;DHT22;5769;47.998;7.788;2024-03-02T11:36:56;18.20;69.10
11426;DHT22;5769;47.998;7.788;2024-03-02T11:39:26;18.20;69.10
11426;DHT22;5769;47.998;7.788;2024-03-02T11:41:52;18.20;69.10
11426;DHT22;5769;47.998;7.788;2024-03-02T11:44:20;18.20;69.20
11426;DHT22;5769;47.998;7.788;2024-03-02T11:46:52;18.20;69.10
11426;DHT22;5769;47.998;7.788;2024-03-02T11:49:36;18.20;69.10
11426;DHT22;5769;47.998;7.788;2024-03-02T11:52:07;18.20;69.20
11426;DHT22;5769;47.998;7.788;2024-03-02T11:54:37;18.20;69.30
11426;DHT22;5769;47.998;7.788;2024-03-02T11:57:05;18.20;69.30
11426;DHT22;5769;47.998;7.788;2024-03-02T11:59:32;18.20;69.20
11426;DHT22;5769;47.998;7.788;2024-03-02T12:02:03;18.20;69.30
11426;DHT22;5769;47.998;7.788;2024-03-02T12:04:31;18.20;69.20
11426;DHT22;5769;47.998;7.788;2024-03-02T12:06:59;18.20;69.20
11426;DHT22;5769;47.998;7.788;2024-03-02T12:09:27;18.20;69.20
11426;DHT22;5769;47.998;7.788;2024-03-02T12:12:08;18.30;69.30
11426;DHT22;5769;47.998;7.788;2024-03-02T12:14:36;18.30;69.30
11426;DHT22;5769;47.998;7.788;2024-03-02T12:17:04;18.30;69.40
11426;DHT22;5769;47.998;7.788;2024-03-02T12:19:33;18.30;69.40
11426;DHT22;5769;47.998;7.788;2024-03-02T12:22:00;18.30;69.50
11426;DHT22;5769;47.998;7.788;2024-03-02T12:24:28;18.30;69.50
11426;DHT22;5769;47.998;7.788;2024-03-02T12:26:57;18.30;69.50
11426;DHT22;5769;47.998;7.788;2024-03-02T12:29:26;18.30;69.50
11426;DHT22;5769;47.998;7.788;2024-03-02T12:31:53;18.40;69.60
11426;DHT22;5769;47.998;7.788;2024-03-02T12:34:22;18.30;69.60
11426;DHT22;5769;47.998;7.788;2024-03-02T12:36:49;18.40;69.60
11426;DHT22;5769;47.998;7.788;2024-03-02T12:39:18;18.40;69.70
11426;DHT22;5769;47.998;7.788;2024-03-02T12:41:46;18.40;69.70
11426;DHT22;5769;47.998;7.788;2024-03-02T12:44:16;18.40;69.80
11426;DHT22;5769;47.998;7.788;2024-03-02T12:46:44;18.40;69.90
11426;DHT22;5769;47.998;7.788;2024-03-02T12:49:13;18.40;70.00
11426;DHT22;5769;47.998;7.788;2024-03-02T12:51:42;18.40;69.90
11426;DHT22;5769;47.998;7.788;2024-03-02T12:54:10;18.40;70.00
11426;DHT22;5769;47.998;7.788;2024-03-02T12:56:37;18.50;70.10
11426;DHT22;5769;47.998;7.788;2024-03-02T12:59:04;18.40;70.00
11426;DHT22;5769;47.998;7.788;2024-03-02T13:01:31;18.50;70.10
11426;DHT22;5769;47.998;7.788;2024-03-02T13:03:59;18.50;70.20
11426;DHT22;5769;47.998;7.788;2024-03-02T13:06:26;18.50;70.20
11426;DHT22;5769;47.998;7.788;2024-03-02T13:08:54;18.50;70.20
11426;DHT22;5769;47.998;7.788;2024-03-02T13:11:22;18.50;70.20
11426;DHT22;5769;47.998;7.788;2024-03-02T13:13:50;18.50;70.20
11426;DHT22;5769;47.998;7.788;2024-03-02T13:16:17;18.50;70.20
11426;DHT22;5769;47.998;7.788;2024-03-02T13:18:45;18.50;70.20
11426;DHT22;5769;47.998;7.788;2024-03-02T13:21:13;18.50;70.20
11426;DHT22;5769;47.998;7.788;2024-03-02T13:23:40;18.50;70.20
11426;DHT22;5769;47.998;7.788;2024-03-02T13:26:07;18.50;70.20
11426;DHT22;5769;47.998;7.788;2024-03-02T13:28:36;18.50;70.30
11426;DHT22;5769;47.998;7.788;2024-03-02T13:31:03;18.50;70.30
11426;DHT22;5769;47.998;7.788;2024-03-02T13:33:31;18.50;70.20
11426;DHT22;5769;47.998;7.788;2024-03-02T13:35:58;18.50;70.20
11426;DHT22;5769;47.998;7.788;2024-03-02T13:38:26;18.50;70.20
11426;DHT22;5769;47.998;7.788;2024-03-02T13:40:53;18.50;70.10
11426;DHT22;5769;47.998;7.788;2024-03-02T13:43:23;18.50;70.00
11426;DHT22;5769;47.998;7.788;2024-03-02T13:45:50;18.50;70.00
11426;DHT22;5769;47.998;7.788;2024-03-02T13:48:18;18.40;69.90
11426;DHT22;5769;47.998;7.788;2024-03-02T13:50:48;18.40;69.90
11426;DHT22;5769;47.998;7.788;2024-03-02T13:53:15;18.40;69.80
11426;DHT22;5769;47.998;7.788;2024-03-02T13:55:43;18.40;69.80
11426;DHT22;5769;47.998;7.788;2024-03-02T13:58:16;18.40;69.70
11426;DHT22;5769;47.998;7.788;2024-03-02T14:00:49;18.50;69.70
11426;DHT22;5769;47.998;7.788;2024-03-02T14:03:16;18.40;69.60
11426;DHT22;5769;47.998;7.788;2024-03-02T14:05:43;18.40;69.60
11426;DHT22;5769;47.998;7.788;2024-03-02T14:08:11;18.40;69.60
11426;DHT22;5769;47.998;7.788;2024-03-02T14:10:38;18.40;69.70
11426;DHT22;5769;47.998;7.788;2024-03-02T14:13:06;18.40;69.80
11426;DHT22;5769;47.998;7.788;2024-03-02T14:15:33;18.40;69.80
11426;DHT22;5769;47.998;7.788;2024-03-02T14:18:04;18.40;69.80
11426;DHT22;5769;47.998;7.788;2024-03-02T14:20:31;18.40;69.70
11426;DHT22;5769;47.998;7.788;2024-03-02T14:22:58;18.40;69.70
11426;DHT22;5769;47.998;7.788;2024-03-02T14:25:26;18.40;69.80
11426;DHT22;5769;47.998;7.788;2024-03-02T14:27:56;18.40;69.70
11426;DHT22;5769;47.998;7.788;2024-03-02T14:30:24;18.40;69.60
11426;DHT22;5769;47.998;7.788;2024-03-02T14:32:51;18.40;69.60
11426;DHT22;5769;47.998;7.788;2024-03-02T14:35:18;18.40;69.60
11426;DHT22;5769;47.998;7.788;2024-03-02T14:37:45;18.40;69.50
11426;DHT22;5769;47.998;7.788;2024-03-02T14:40:12;18.40;69.50
11426;DHT22;5769;47.998;7.788;2024-03-02T14:42:39;18.40;69.50
11426;DHT22;5769;47.998;7.788;2024-03-02T14:45:06;18.40;69.50
11426;DHT22;5769;47.998;7.788;2024-03-02T14:47:34;18.40;69.50
11426;DHT22;5769;47.998;7.788;2024-03-02T14:50:01;18.40;69.50
11426;DHT22;5769;47.998;7.788;2024-03-02T14:52:31;18.40;69.50
11426;DHT22;5769;47.998;7.788;2024-03-02T14:54:58;18.40;69.50
11426;DHT22;5769;47.998;7.788;2024-03-02T14:57:25;18.40;69.50
11426;DHT22;5769;47.998;7.788;2024-03-02T14:59:51;18.40;69.50
11426;DHT22;5769;47.998;7.788;2024-03-02T15:02:20;18.40;69.50
11426;DHT22;5769;47.998;7.788;2024-03-02T15:04:48;18.40;69.50
11426;DHT22;5769;47.998;7.788;2024-03-02T15:07:15;18.40;69.60
11426;DHT22;5769;47.998;7.788;2024-03-02T15:09:41;18.40;69.50
11426;DHT22;5769;47.998;7.788;2024-03-02T15:12:08;18.40;69.50
11426;DHT22;5769;47.998;7.788;2024-03-02T15:14:38;18.40;69.50
11426;DHT22;5769;47.998;7.788;2024-03-02T15:17:11;18.40;69.60
11426;DHT22;5769;47.998;7.788;2024-03-02T15:19:40;18.40;69.50
11426;DHT22;5769;47.998;7.788;2024-03-02T15:22:08;18.40;69.50
11426;DHT22;5769;47.998;7.788;2024-03-02T15:24:35;18.40;69.60
11426;DHT22;5769;47.998;7.788;2024-03-02T15:27:02;18.40;69.60
11426;DHT22;5769;47.998;7.788;2024-03-02T15:29:31;18.40;69.60
11426;DHT22;5769;47.998;7.788;2024-03-02T15:31:58;18.40;69.60
11426;DHT22;5769;47.998;7.788;2024-03-02T15:34:25;18.30;69.50
11426;DHT22;5769;47.998;7.788;2024-03-02T15:36:52;18.40;69.60
11426;DHT22;5769;47.998;7.788;2024-03-02T15:39:21;18.40;69.60
11426;DHT22;5769;47.998;7.788;2024-03-02T15:41:48;18.40;69.60
11426;DHT22;5769;47.998;7.788;2024-03-02T15:44:15;18.40;69.60
11426;DHT22;5769;47.998;7.788;2024-03-02T15:46:42;18.30;69.60
11426;DHT22;5769;47.998;7.788;2024-03-02T15:49:09;18.40;69.60
11426;DHT22;5769;47.998;7.788;2024-03-02T15:51:36;18.40;69.60